createdAt,value
2019-05-01T00:03:09.948Z,10.42
2019-05-01T00:05:58.820Z,10.41
2019-05-01T00:08:46.476Z,10.33
2019-05-01T00:11:34.105Z,10.37
2019-05-01T00:14:21.882Z,10.31
2019-05-01T00:17:09.652Z,10.27
2019-05-01T00:19:57.215Z,10.26
2019-05-01T00:22:45.420Z,10.22
2019-05-01T00:25:33.450Z,10.17
2019-05-01T00:28:21.114Z,10.19
2019-05-01T00:31:08.642Z,10.11
2019-05-01T00:33:56.262Z,10.08
2019-05-01T00:36:44.110Z,10.07
2019-05-01T00:39:31.688Z,10.03
2019-05-01T00:42:19.796Z,9.98
2019-05-01T00:45:07.612Z,9.99
2019-05-01T00:47:55.946Z,9.95
2019-05-01T00:50:43.385Z,9.92
2019-05-01T00:53:31.040Z,9.90
2019-05-01T00:56:37.984Z,9.87
2019-05-01T00:59:35.018Z,9.89
2019-05-01T01:02:47.448Z,9.90
2019-05-01T01:05:35.152Z,9.88
2019-05-01T01:08:22.664Z,9.86
2019-05-01T01:11:10.307Z,9.89
2019-05-01T01:13:58.534Z,9.88
2019-05-01T01:16:46.031Z,9.89
2019-05-01T01:19:33.853Z,9.83
2019-05-01T01:22:22.152Z,9.77
2019-05-01T01:25:10.042Z,9.73
2019-05-01T01:27:57.611Z,9.68
2019-05-01T01:30:55.685Z,9.69
2019-05-01T01:33:33.884Z,9.72
2019-05-01T01:36:21.840Z,9.70
2019-05-01T01:39:09.622Z,9.66
2019-05-01T01:41:57.086Z,9.59
2019-05-01T01:44:58.499Z,9.59
2019-05-01T01:48:03.907Z,9.49
2019-05-01T01:50:51.738Z,9.52
2019-05-01T01:53:39.897Z,9.45
2019-05-01T01:56:27.874Z,9.48
2019-05-01T01:59:15.549Z,9.49
2019-05-01T02:02:07.584Z,9.48
2019-05-01T02:05:10.331Z,9.44
2019-05-01T02:07:58.165Z,9.42
2019-05-01T02:10:45.917Z,9.48
2019-05-01T02:13:33.535Z,9.48
2019-05-01T02:16:20.934Z,9.39
2019-05-01T02:19:11.595Z,9.38
2019-05-01T02:21:59.542Z,9.38
2019-05-01T02:24:47.753Z,9.41
2019-05-01T02:27:40.423Z,9.22
2019-05-01T02:30:28.352Z,9.33
2019-05-01T02:33:16.232Z,9.32
2019-05-01T02:36:04.417Z,9.31
2019-05-01T02:38:52.464Z,9.33
2019-05-01T02:41:41.899Z,9.33
2019-05-01T02:44:30.415Z,9.35
2019-05-01T02:47:21.422Z,9.38
2019-05-01T02:50:10.660Z,9.21
2019-05-01T02:52:58.420Z,9.21
2019-05-01T02:55:53.909Z,9.22
2019-05-01T02:58:41.454Z,9.20
2019-05-01T03:01:45.561Z,9.19
2019-05-01T03:04:16.977Z,9.17
2019-05-01T03:07:05.159Z,9.03
2019-05-01T03:09:52.864Z,9.05
2019-05-01T03:12:40.601Z,9.04
2019-05-01T03:15:28.341Z,9.06
2019-05-01T03:18:26.868Z,8.98
2019-05-01T03:21:22.332Z,9.00
2019-05-01T03:24:17.083Z,9.00
2019-05-01T03:27:04.869Z,8.96
2019-05-01T03:29:52.967Z,8.88
2019-05-01T03:32:41.151Z,8.81
2019-05-01T03:35:29.432Z,8.67
2019-05-01T03:38:17.259Z,8.67
2019-05-01T03:41:05.215Z,8.66
2019-05-01T03:43:52.834Z,8.66
2019-05-01T03:46:40.947Z,8.59
2019-05-01T03:49:28.601Z,8.59
2019-05-01T03:52:16.875Z,8.62
2019-05-01T03:55:05.064Z,8.62
2019-05-01T03:57:53.154Z,8.65
2019-05-01T04:01:00.091Z,8.61
2019-05-01T04:03:50.841Z,8.58
2019-05-01T04:06:41.715Z,8.60
2019-05-01T04:09:29.579Z,8.51
2019-05-01T04:12:17.163Z,8.51
2019-05-01T04:15:05.041Z,8.51
2019-05-01T04:17:53.432Z,8.53
2019-05-01T04:20:40.899Z,8.53
2019-05-01T04:23:31.595Z,8.56
2019-05-01T04:26:18.956Z,8.57
2019-05-01T04:29:28.877Z,8.55
2019-05-01T04:32:22.199Z,8.55
2019-05-01T04:35:29.407Z,8.61
2019-05-01T04:38:16.887Z,8.61
2019-05-01T04:41:05.005Z,8.56
2019-05-01T04:43:52.709Z,8.56
2019-05-01T04:46:40.691Z,8.53
2019-05-01T04:49:28.406Z,8.51
2019-05-01T04:52:16.194Z,8.59
2019-05-01T04:55:04.321Z,8.64
2019-05-01T04:57:51.868Z,8.57
2019-05-01T05:00:39.468Z,8.65
2019-05-01T05:03:27.722Z,8.53
2019-05-01T05:06:15.352Z,8.53
2019-05-01T05:09:03.052Z,8.51
2019-05-01T05:11:54.392Z,8.51
2019-05-01T05:14:42.344Z,8.47
2019-05-01T05:17:30.515Z,8.50
2019-05-01T05:20:18.148Z,8.54
2019-05-01T05:23:06.033Z,8.54
2019-05-01T05:25:54.193Z,8.61
2019-05-01T05:28:41.803Z,8.45
2019-05-01T05:31:30.014Z,8.51
2019-05-01T05:34:19.524Z,8.51
2019-05-01T05:37:14.540Z,8.45
2019-05-01T05:40:02.962Z,8.45
2019-05-01T05:42:50.376Z,8.49
2019-05-01T05:45:38.092Z,8.49
2019-05-01T05:48:25.876Z,8.50
2019-05-01T05:51:21.540Z,8.63
2019-05-01T05:54:34.714Z,8.76
2019-05-01T05:57:29.710Z,8.76
2019-05-01T06:00:26.193Z,8.83
2019-05-01T06:03:35.000Z,8.76
2019-05-01T06:06:28.706Z,8.79
2019-05-01T06:09:17.350Z,8.81
2019-05-01T06:12:13.257Z,8.81
2019-05-01T06:15:21.286Z,8.78
2019-05-01T06:18:22.327Z,8.64
2019-05-01T06:21:36.638Z,8.64
2019-05-01T06:24:35.634Z,8.81
2019-05-01T06:27:19.553Z,8.81
2019-05-01T06:30:11.010Z,8.89
2019-05-01T06:32:56.419Z,8.81
2019-05-01T06:35:44.759Z,8.85
2019-05-01T06:38:36.313Z,8.97
2019-05-01T06:41:19.658Z,9.08
2019-05-01T06:44:20.271Z,9.14
2019-05-01T06:47:29.016Z,9.14
2019-05-01T06:50:21.191Z,9.29
2019-05-01T06:53:09.711Z,9.57
2019-05-01T06:55:57.804Z,9.57
2019-05-01T06:58:45.513Z,9.54
2019-05-01T07:01:33.042Z,9.88
2019-05-01T07:04:20.969Z,9.54
2019-05-01T07:07:23.971Z,9.54
2019-05-01T07:09:56.857Z,9.72
2019-05-01T07:12:44.536Z,9.75
2019-05-01T07:15:32.787Z,9.75
2019-05-01T07:18:23.714Z,9.98
2019-05-01T07:21:08.339Z,10.24
2019-05-01T07:23:55.789Z,10.27
2019-05-01T07:26:43.933Z,10.58
2019-05-01T07:29:32.902Z,10.19
2019-05-01T07:32:20.009Z,10.19
2019-05-01T07:35:07.504Z,10.26
2019-05-01T07:37:57.525Z,10.31
2019-05-01T07:40:43.606Z,10.28
2019-05-01T07:44:00.988Z,10.09
2019-05-01T07:47:03.601Z,10.36
2019-05-01T07:49:54.628Z,10.70
2019-05-01T07:52:41.320Z,10.70
2019-05-01T07:55:38.894Z,10.61
2019-05-01T07:58:26.727Z,10.70
2019-05-01T08:01:27.375Z,10.70
2019-05-01T08:04:19.722Z,10.76
2019-05-01T08:07:04.170Z,10.70
2019-05-01T08:09:51.947Z,11.10
2019-05-01T08:12:40.195Z,11.19
2019-05-01T08:15:32.325Z,11.56
2019-05-01T08:18:24.017Z,11.51
2019-05-01T08:21:28.913Z,11.54
2019-05-01T08:24:17.994Z,11.54
2019-05-01T08:27:04.907Z,11.75
2019-05-01T08:30:00.476Z,11.77
2019-05-01T08:33:16.388Z,11.73
2019-05-01T08:36:06.729Z,11.57
2019-05-01T08:38:51.943Z,11.57
2019-05-01T08:41:39.742Z,12.11
2019-05-01T08:44:29.596Z,12.55
2019-05-01T08:47:25.944Z,12.16
2019-05-01T08:50:13.701Z,12.65
2019-05-01T08:53:01.675Z,12.81
2019-05-01T08:55:49.425Z,12.76
2019-05-01T08:58:37.155Z,12.34
2019-05-01T09:01:25.061Z,12.94
2019-05-01T09:04:13.489Z,12.77
2019-05-01T09:07:01.003Z,13.18
2019-05-01T09:09:48.770Z,13.61
2019-05-01T09:12:36.512Z,13.75
2019-05-01T09:15:24.157Z,14.20
2019-05-01T09:18:11.820Z,14.25
2019-05-01T09:20:59.517Z,14.56
2019-05-01T09:23:51.373Z,14.71
2019-05-01T09:26:45.457Z,14.92
2019-05-01T09:29:37.966Z,15.32
2019-05-01T09:32:25.786Z,15.77
2019-05-01T09:35:15.971Z,15.31
2019-05-01T09:38:01.671Z,15.51
2019-05-01T09:40:49.234Z,15.33
2019-05-01T09:43:37.155Z,15.82
2019-05-01T09:46:25.520Z,16.06
2019-05-01T09:49:14.336Z,16.35
2019-05-01T09:52:23.509Z,16.34
2019-05-01T09:55:34.153Z,16.65
2019-05-01T09:58:21.729Z,16.40
2019-05-01T10:01:09.482Z,16.72
2019-05-01T10:03:57.292Z,16.90
2019-05-01T10:06:47.736Z,17.04
2019-05-01T10:09:33.775Z,17.38
2019-05-01T10:12:21.967Z,16.99
2019-05-01T10:15:09.627Z,17.46
2019-05-01T10:17:57.883Z,17.27
2019-05-01T10:20:45.419Z,17.55
2019-05-01T10:23:33.703Z,17.98
2019-05-01T10:26:23.958Z,18.48
2019-05-01T10:29:36.500Z,18.41
2019-05-01T10:32:25.378Z,17.90
2019-05-01T10:35:42.794Z,18.19
2019-05-01T10:38:25.925Z,17.70
2019-05-01T10:41:13.742Z,17.85
2019-05-01T10:44:01.584Z,17.35
2019-05-01T10:46:50.002Z,17.44
2019-05-01T10:49:37.498Z,17.85
2019-05-01T10:52:25.153Z,18.47
2019-05-01T10:55:12.677Z,18.09
2019-05-01T10:58:03.207Z,18.53
2019-05-01T11:00:50.152Z,18.57
2019-05-01T11:03:38.017Z,18.13
2019-05-01T11:06:26.209Z,18.56
2019-05-01T11:09:13.926Z,18.64
2019-05-01T11:12:02.047Z,19.17
2019-05-01T11:14:49.767Z,18.64
2019-05-01T11:17:37.711Z,18.41
2019-05-01T11:20:25.498Z,17.49
2019-05-01T11:23:12.996Z,18.21
2019-05-01T11:26:00.555Z,18.88
2019-05-01T11:28:48.351Z,18.46
2019-05-01T11:31:42.903Z,18.67
2019-05-01T11:35:02.565Z,18.50
2019-05-01T11:37:57.486Z,18.59
2019-05-01T11:40:49.183Z,19.10
2019-05-01T11:43:45.899Z,19.77
2019-05-01T11:46:36.685Z,19.68
2019-05-01T11:49:24.776Z,19.44
2019-05-01T11:52:12.545Z,19.38
2019-05-01T11:55:00.302Z,20.14
2019-05-01T11:57:48.762Z,20.58
2019-05-01T12:00:36.503Z,20.72
2019-05-01T12:03:24.206Z,20.78
2019-05-01T12:06:22.338Z,21.07
2019-05-01T12:09:02.283Z,21.12
2019-05-01T12:11:50.196Z,21.41
2019-05-01T12:14:38.737Z,20.64
2019-05-01T12:17:30.252Z,20.83
2019-05-01T12:20:19.058Z,20.82
2019-05-01T12:23:06.597Z,20.78
2019-05-01T12:25:54.289Z,20.88
2019-05-01T12:28:41.924Z,21.59
2019-05-01T12:31:31.257Z,21.51
2019-05-01T12:34:18.107Z,21.63
2019-05-01T12:37:26.393Z,21.65
2019-05-01T12:40:15.832Z,21.80
2019-05-01T12:43:03.726Z,21.72
2019-05-01T12:45:51.667Z,21.29
2019-05-01T12:48:40.129Z,21.86
2019-05-01T12:51:27.939Z,22.12
2019-05-01T12:54:26.009Z,21.41
2019-05-01T12:57:14.201Z,21.35
2019-05-01T13:00:08.495Z,21.61
2019-05-01T13:02:49.451Z,22.22
2019-05-01T13:05:37.167Z,22.33
2019-05-01T13:08:24.705Z,22.51
2019-05-01T13:11:13.144Z,22.87
2019-05-01T13:14:00.632Z,22.62
2019-05-01T13:16:48.244Z,22.21
2019-05-01T13:19:36.053Z,22.09
2019-05-01T13:22:23.685Z,22.20
2019-05-01T13:25:11.279Z,22.05
2019-05-01T13:28:13.701Z,21.88
2019-05-01T13:31:11.516Z,22.17
2019-05-01T13:33:59.233Z,21.69
2019-05-01T13:36:46.823Z,22.28
2019-05-01T13:39:34.687Z,22.32
2019-05-01T13:42:22.575Z,22.18
2019-05-01T13:45:10.236Z,22.26
2019-05-01T13:47:57.750Z,21.85
2019-05-01T13:50:45.317Z,22.05
2019-05-01T13:53:33.067Z,21.69
2019-05-01T13:56:21.270Z,21.59
2019-05-01T13:59:10.655Z,21.88
2019-05-01T14:01:58.472Z,21.38
2019-05-01T14:04:46.278Z,20.90
2019-05-01T14:07:34.217Z,21.26
2019-05-01T14:10:22.066Z,21.11
2019-05-01T14:13:09.791Z,21.21
2019-05-01T14:15:57.443Z,20.69
2019-05-01T14:18:44.859Z,20.81
2019-05-01T14:21:37.651Z,21.39
2019-05-01T14:24:32.986Z,21.09
2019-05-01T14:27:21.246Z,21.39
2019-05-01T14:30:09.411Z,21.49
2019-05-01T14:32:57.686Z,21.53
2019-05-01T14:35:45.503Z,21.88
2019-05-01T14:38:33.694Z,22.04
2019-05-01T14:41:21.275Z,21.98
2019-05-01T14:44:08.899Z,22.37
2019-05-01T14:46:57.217Z,21.95
2019-05-01T14:49:44.885Z,22.36
2019-05-01T14:52:32.757Z,22.66
2019-05-01T14:55:20.353Z,22.74
2019-05-01T14:58:08.073Z,22.70
2019-05-01T15:00:56.415Z,21.94
2019-05-01T15:03:44.677Z,21.78
2019-05-01T15:06:32.398Z,21.63
2019-05-01T15:09:20.175Z,21.25
2019-05-01T15:12:07.631Z,21.53
2019-05-01T15:15:17.243Z,21.53
2019-05-01T15:18:10.725Z,21.47
2019-05-01T15:20:59.065Z,21.89
2019-05-01T15:23:53.629Z,21.77
2019-05-01T15:26:35.436Z,21.91
2019-05-01T15:29:23.255Z,21.69
2019-05-01T15:32:11.070Z,21.88
2019-05-01T15:34:58.789Z,21.83
2019-05-01T15:37:56.484Z,21.03
2019-05-01T15:40:53.371Z,20.61
2019-05-01T15:44:13.125Z,21.01
2019-05-01T15:47:00.637Z,20.95
2019-05-01T15:49:48.059Z,20.52
2019-05-01T15:52:36.421Z,20.63
2019-05-01T15:55:24.084Z,21.04
2019-05-01T15:58:12.333Z,21.19
2019-05-01T16:00:59.915Z,21.13
2019-05-01T16:03:47.616Z,20.82
2019-05-01T16:06:35.789Z,21.23
2019-05-01T16:09:24.075Z,21.07
2019-05-01T16:12:36.436Z,21.26
2019-05-01T16:15:29.377Z,21.32
2019-05-01T16:18:16.845Z,21.97
2019-05-01T16:21:04.591Z,21.96
2019-05-01T16:23:52.342Z,22.17
2019-05-01T16:26:40.457Z,22.51
2019-05-01T16:29:27.857Z,22.37
2019-05-01T16:32:15.564Z,22.29
2019-05-01T16:35:02.869Z,21.84
2019-05-01T16:37:50.673Z,21.74
2019-05-01T16:40:59.325Z,22.45
2019-05-01T16:43:46.613Z,22.48
2019-05-01T16:46:34.628Z,22.62
2019-05-01T16:49:22.602Z,22.16
2019-05-01T16:52:10.279Z,22.08
2019-05-01T16:54:59.492Z,21.61
2019-05-01T16:57:45.401Z,21.44
2019-05-01T17:01:04.132Z,21.19
2019-05-01T17:04:02.201Z,21.35
2019-05-01T17:07:01.765Z,21.38
2019-05-01T17:10:08.478Z,20.88
2019-05-01T17:12:55.967Z,20.68
2019-05-01T17:15:44.559Z,20.33
2019-05-01T17:18:32.118Z,19.12
2019-05-01T17:21:20.583Z,18.91
2019-05-01T17:24:08.727Z,18.20
2019-05-01T17:26:56.908Z,18.00
2019-05-01T17:29:45.319Z,17.80
2019-05-01T17:32:33.059Z,17.59
2019-05-01T17:35:20.584Z,17.48
2019-05-01T17:38:08.245Z,17.16
2019-05-01T17:40:56.149Z,17.13
2019-05-01T17:43:44.768Z,17.05
2019-05-01T17:46:31.613Z,16.97
2019-05-01T17:49:19.130Z,16.85
2019-05-01T17:52:07.255Z,16.85
2019-05-01T17:54:55.021Z,16.91
2019-05-01T17:57:42.545Z,16.92
2019-05-01T18:00:47.694Z,16.79
2019-05-01T18:03:57.809Z,16.43
2019-05-01T18:06:48.190Z,16.05
2019-05-01T18:09:36.150Z,15.90
2019-05-01T18:12:28.416Z,15.72
2019-05-01T18:15:12.007Z,15.52
2019-05-01T18:17:59.919Z,15.43
2019-05-01T18:20:47.522Z,15.32
2019-05-01T18:23:53.435Z,15.15
2019-05-01T18:26:59.307Z,15.03
2019-05-01T18:29:48.876Z,14.91
2019-05-01T18:32:46.529Z,14.81
2019-05-01T18:35:29.739Z,14.70
2019-05-01T18:38:31.318Z,14.59
2019-05-01T18:41:23.210Z,14.38
2019-05-01T18:44:11.431Z,14.21
2019-05-01T18:46:58.273Z,14.12
2019-05-01T18:49:45.886Z,14.07
2019-05-01T18:52:33.583Z,13.96
2019-05-01T18:55:25.898Z,13.87
2019-05-01T18:58:09.535Z,13.78
2019-05-01T19:00:57.639Z,13.68
2019-05-01T19:03:45.247Z,13.59
2019-05-01T19:06:40.952Z,13.48
2019-05-01T19:09:29.734Z,13.24
2019-05-01T19:12:09.529Z,13.33
2019-05-01T19:15:00.300Z,13.28
2019-05-01T19:17:45.680Z,13.22
2019-05-01T19:20:34.324Z,13.15
2019-05-01T19:23:22.092Z,13.11
2019-05-01T19:26:09.621Z,13.08
2019-05-01T19:28:57.422Z,12.99
2019-05-01T19:31:45.697Z,12.88
2019-05-01T19:34:33.346Z,12.80
2019-05-01T19:37:22.063Z,12.74
2019-05-01T19:40:10.699Z,12.63
2019-05-01T19:43:00.136Z,12.49
2019-05-01T19:45:46.292Z,12.40
2019-05-01T19:48:34.039Z,12.32
2019-05-01T19:51:24.014Z,12.23
2019-05-01T19:54:09.490Z,12.13
2019-05-01T19:56:56.847Z,12.06
2019-05-01T19:59:44.822Z,11.90
2019-05-01T20:02:32.471Z,11.79
2019-05-01T20:05:21.969Z,11.66
2019-05-01T20:08:08.143Z,11.54
2019-05-01T20:10:56.364Z,11.43
2019-05-01T20:13:44.453Z,11.34
2019-05-01T20:16:32.005Z,11.26
2019-05-01T20:19:19.698Z,11.15
2019-05-01T20:22:07.909Z,11.09
2019-05-01T20:24:56.081Z,10.97
2019-05-01T20:27:47.734Z,10.87
2019-05-01T20:30:32.174Z,10.71
2019-05-01T20:33:19.783Z,10.65
2019-05-01T20:36:07.644Z,10.56
2019-05-01T20:38:55.159Z,10.41
2019-05-01T20:41:43.271Z,10.14
2019-05-01T20:44:31.465Z,10.22
2019-05-01T20:47:34.151Z,10.16
2019-05-01T20:50:06.805Z,10.11
2019-05-01T20:52:54.435Z,10.09
2019-05-01T20:55:42.512Z,10.09
2019-05-01T20:58:30.712Z,10.10
2019-05-01T21:01:18.383Z,10.04
2019-05-01T21:04:16.262Z,10.04
2019-05-01T21:07:19.830Z,9.97
2019-05-01T21:10:07.267Z,9.91
2019-05-01T21:12:54.870Z,9.91
2019-05-01T21:15:42.832Z,9.83
2019-05-01T21:18:30.864Z,9.69
2019-05-01T21:21:18.475Z,9.54
2019-05-01T21:24:05.881Z,9.54
2019-05-01T21:26:54.234Z,9.48
2019-05-01T21:29:42.017Z,9.44
2019-05-01T21:32:29.818Z,9.40
2019-05-01T21:35:17.620Z,9.28
2019-05-01T21:38:05.640Z,9.28
2019-05-01T21:40:53.887Z,9.16
2019-05-01T21:43:42.517Z,9.08
2019-05-01T21:46:28.789Z,9.08
2019-05-01T21:49:17.139Z,9.09
2019-05-01T21:52:07.232Z,9.11
2019-05-01T21:54:55.417Z,9.01
2019-05-01T21:57:40.910Z,9.02
2019-05-01T22:00:32.126Z,8.99
2019-05-01T22:03:21.577Z,8.97
2019-05-01T22:06:11.344Z,8.94
2019-05-01T22:08:55.042Z,8.94
2019-05-01T22:11:44.355Z,8.94
2019-05-01T22:14:42.139Z,8.87
2019-05-01T22:18:00.634Z,8.87
2019-05-01T22:20:52.233Z,8.94
2019-05-01T22:24:17.797Z,8.97
2019-05-01T22:27:08.272Z,8.94
2019-05-01T22:30:05.778Z,8.86
2019-05-01T22:32:51.419Z,8.86
2019-05-01T22:35:42.916Z,8.74
2019-05-01T22:38:31.316Z,8.68
2019-05-01T22:41:18.918Z,8.68
2019-05-01T22:44:06.537Z,8.63
2019-05-01T22:46:54.426Z,8.63
2019-05-01T22:49:42.922Z,8.59
2019-05-01T22:52:30.676Z,8.53
2019-05-01T22:55:20.452Z,8.48
2019-05-01T22:58:05.896Z,8.48
2019-05-01T23:00:55.631Z,8.48
2019-05-01T23:04:05.640Z,8.44
2019-05-01T23:06:53.284Z,8.38
2019-05-01T23:09:40.755Z,8.31
2019-05-01T23:12:29.642Z,8.34
2019-05-01T23:15:20.590Z,8.34
2019-05-01T23:18:10.657Z,8.33
2019-05-01T23:20:56.567Z,8.38
2019-05-01T23:23:44.656Z,8.34
2019-05-01T23:26:32.296Z,8.22
2019-05-01T23:29:19.946Z,8.22
2019-05-01T23:32:07.907Z,8.23
2019-05-01T23:34:55.821Z,8.22
2019-05-01T23:37:49.621Z,8.16
2019-05-01T23:40:37.155Z,8.16
2019-05-01T23:43:27.897Z,8.09
2019-05-01T23:46:13.346Z,8.10
2019-05-01T23:49:01.353Z,8.14
2019-05-01T23:51:49.562Z,8.05
2019-05-01T23:54:37.065Z,8.05
2019-05-01T23:57:24.806Z,8.00
